sensor_id;sensor_type;location;lat;lon;timestamp;P1;durP1;ratioP1;P2;durP2;ratioP2
48911;SDS011;34722;52.108;5.044;2023-07-20T00:02:07;10.13;;;6.47;;
48911;SDS011;34722;52.108;5.044;2023-07-20T00:04:33;8.48;;;5.60;;
48911;SDS011;34722;52.108;5.044;2023-07-20T00:06:59;7.80;;;4.75;;
48911;SDS011;34722;52.108;5.044;2023-07-20T00:09:28;7.82;;;5.53;;
48911;SDS011;34722;52.108;5.044;2023-07-20T00:11:54;7.70;;;4.82;;
48911;SDS011;34722;52.108;5.044;2023-07-20T00:14:20;6.35;;;4.30;;
48911;SDS011;34722;52.108;5.044;2023-07-20T00:16:46;6.45;;;4.35;;
48911;SDS011;34722;52.108;5.044;2023-07-20T00:19:21;8.27;;;5.03;;
48911;SDS011;34722;52.108;5.044;2023-07-20T00:21:54;7.13;;;4.22;;
48911;SDS011;34722;52.108;5.044;2023-07-20T00:24:20;5.47;;;4.80;;
48911;SDS011;34722;52.108;5.044;2023-07-20T00:26:46;7.45;;;5.25;;
48911;SDS011;34722;52.108;5.044;2023-07-20T00:29:11;6.43;;;5.00;;
48911;SDS011;34722;52.108;5.044;2023-07-20T00:31:37;6.63;;;5.05;;
48911;SDS011;34722;52.108;5.044;2023-07-20T00:34:04;7.22;;;5.13;;
48911;SDS011;34722;52.108;5.044;2023-07-20T00:36:30;7.50;;;4.57;;
48911;SDS011;34722;52.108;5.044;2023-07-20T00:38:55;4.60;;;4.05;;
48911;SDS011;34722;52.108;5.044;2023-07-20T00:41:21;6.20;;;4.03;;
48911;SDS011;34722;52.108;5.044;2023-07-20T00:43:47;5.38;;;4.30;;
48911;SDS011;34722;52.108;5.044;2023-07-20T00:46:13;8.43;;;3.83;;
48911;SDS011;34722;52.108;5.044;2023-07-20T00:48:40;5.38;;;3.80;;
48911;SDS011;34722;52.108;5.044;2023-07-20T00:51:07;4.60;;;3.47;;
48911;SDS011;34722;52.108;5.044;2023-07-20T00:53:32;3.95;;;3.03;;
48911;SDS011;34722;52.108;5.044;2023-07-20T00:55:58;3.92;;;3.50;;
48911;SDS011;34722;52.108;5.044;2023-07-20T00:58:24;3.03;;;2.75;;
48911;SDS011;34722;52.108;5.044;2023-07-20T01:00:53;8.15;;;5.30;;
48911;SDS011;34722;52.108;5.044;2023-07-20T01:03:19;3.97;;;3.42;;
48911;SDS011;34722;52.108;5.044;2023-07-20T01:11:15;5.90;;;3.95;;
48911;SDS011;34722;52.108;5.044;2023-07-20T01:13:45;5.10;;;3.73;;
48911;SDS011;34722;52.108;5.044;2023-07-20T01:16:11;6.35;;;3.47;;
48911;SDS011;34722;52.108;5.044;2023-07-20T01:18:37;6.28;;;3.78;;
48911;SDS011;34722;52.108;5.044;2023-07-20T01:21:04;5.78;;;4.20;;
48911;SDS011;34722;52.108;5.044;2023-07-20T01:26:20;10.48;;;4.43;;
48911;SDS011;34722;52.108;5.044;2023-07-20T01:32:10;6.60;;;4.85;;
48911;SDS011;34722;52.108;5.044;2023-07-20T01:34:36;6.97;;;4.53;;
48911;SDS011;34722;52.108;5.044;2023-07-20T01:37:06;7.25;;;4.47;;
48911;SDS011;34722;52.108;5.044;2023-07-20T01:39:32;8.02;;;4.22;;
48911;SDS011;34722;52.108;5.044;2023-07-20T01:41:58;7.55;;;4.55;;
48911;SDS011;34722;52.108;5.044;2023-07-20T01:44:24;9.20;;;5.05;;
48911;SDS011;34722;52.108;5.044;2023-07-20T01:46:50;5.40;;;4.35;;
48911;SDS011;34722;52.108;5.044;2023-07-20T01:49:16;4.72;;;3.83;;
48911;SDS011;34722;52.108;5.044;2023-07-20T01:51:42;6.32;;;4.28;;
48911;SDS011;34722;52.108;5.044;2023-07-20T01:54:07;8.43;;;5.07;;
48911;SDS011;34722;52.108;5.044;2023-07-20T01:56:36;9.00;;;4.82;;
48911;SDS011;34722;52.108;5.044;2023-07-20T01:59:05;6.65;;;4.97;;
48911;SDS011;34722;52.108;5.044;2023-07-20T02:01:31;8.18;;;5.25;;
48911;SDS011;34722;52.108;5.044;2023-07-20T02:04:00;10.05;;;5.63;;
48911;SDS011;34722;52.108;5.044;2023-07-20T02:06:25;7.47;;;5.00;;
48911;SDS011;34722;52.108;5.044;2023-07-20T02:08:51;6.18;;;5.28;;
48911;SDS011;34722;52.108;5.044;2023-07-20T02:11:18;6.55;;;5.10;;
48911;SDS011;34722;52.108;5.044;2023-07-20T02:13:43;12.73;;;6.07;;
48911;SDS011;34722;52.108;5.044;2023-07-20T02:16:12;8.80;;;6.18;;
48911;SDS011;34722;52.108;5.044;2023-07-20T02:18:38;11.82;;;6.57;;
48911;SDS011;34722;52.108;5.044;2023-07-20T02:21:04;10.73;;;6.47;;
48911;SDS011;34722;52.108;5.044;2023-07-20T02:23:39;13.23;;;7.75;;
48911;SDS011;34722;52.108;5.044;2023-07-20T02:26:04;11.82;;;8.38;;
48911;SDS011;34722;52.108;5.044;2023-07-20T02:28:34;12.88;;;7.97;;
48911;SDS011;34722;52.108;5.044;2023-07-20T02:31:00;14.95;;;8.45;;
48911;SDS011;34722;52.108;5.044;2023-07-20T02:33:25;13.23;;;8.15;;
48911;SDS011;34722;52.108;5.044;2023-07-20T02:35:51;17.73;;;8.32;;
48911;SDS011;34722;52.108;5.044;2023-07-20T02:38:17;17.65;;;10.32;;
48911;SDS011;34722;52.108;5.044;2023-07-20T02:40:43;14.32;;;8.82;;
48911;SDS011;34722;52.108;5.044;2023-07-20T02:43:09;15.48;;;8.30;;
48911;SDS011;34722;52.108;5.044;2023-07-20T02:45:41;13.98;;;9.18;;
48911;SDS011;34722;52.108;5.044;2023-07-20T02:48:12;13.65;;;8.32;;
48911;SDS011;34722;52.108;5.044;2023-07-20T02:50:38;14.30;;;8.90;;
48911;SDS011;34722;52.108;5.044;2023-07-20T02:53:04;11.88;;;8.60;;
48911;SDS011;34722;52.108;5.044;2023-07-20T02:55:30;12.93;;;8.88;;
48911;SDS011;34722;52.108;5.044;2023-07-20T02:57:56;15.27;;;8.35;;
48911;SDS011;34722;52.108;5.044;2023-07-20T03:00:22;14.18;;;8.50;;
48911;SDS011;34722;52.108;5.044;2023-07-20T03:02:48;15.43;;;9.10;;
48911;SDS011;34722;52.108;5.044;2023-07-20T03:05:14;16.33;;;7.97;;
48911;SDS011;34722;52.108;5.044;2023-07-20T03:07:42;15.00;;;9.10;;
48911;SDS011;34722;52.108;5.044;2023-07-20T03:10:11;15.57;;;9.23;;
48911;SDS011;34722;52.108;5.044;2023-07-20T03:12:37;12.00;;;8.25;;
48911;SDS011;34722;52.108;5.044;2023-07-20T03:15:03;16.40;;;8.77;;
48911;SDS011;34722;52.108;5.044;2023-07-20T03:17:30;16.63;;;9.02;;
48911;SDS011;34722;52.108;5.044;2023-07-20T03:19:55;11.65;;;8.20;;
48911;SDS011;34722;52.108;5.044;2023-07-20T03:22:21;15.52;;;8.90;;
48911;SDS011;34722;52.108;5.044;2023-07-20T03:24:47;13.43;;;8.57;;
48911;SDS011;34722;52.108;5.044;2023-07-20T03:27:14;15.45;;;8.93;;
48911;SDS011;34722;52.108;5.044;2023-07-20T03:29:43;14.05;;;8.75;;
48911;SDS011;34722;52.108;5.044;2023-07-20T03:32:14;15.30;;;9.32;;
48911;SDS011;34722;52.108;5.044;2023-07-20T03:34:46;15.05;;;10.00;;
48911;SDS011;34722;52.108;5.044;2023-07-20T03:37:17;17.70;;;9.55;;
48911;SDS011;34722;52.108;5.044;2023-07-20T03:39:44;16.52;;;9.18;;
48911;SDS011;34722;52.108;5.044;2023-07-20T03:42:15;11.82;;;8.20;;
48911;SDS011;34722;52.108;5.044;2023-07-20T03:44:51;16.95;;;10.30;;
48911;SDS011;34722;52.108;5.044;2023-07-20T03:47:24;18.42;;;10.15;;
48911;SDS011;34722;52.108;5.044;2023-07-20T03:49:50;16.45;;;9.70;;
48911;SDS011;34722;52.108;5.044;2023-07-20T03:52:17;15.23;;;9.05;;
48911;SDS011;34722;52.108;5.044;2023-07-20T03:54:45;14.38;;;8.63;;
48911;SDS011;34722;52.108;5.044;2023-07-20T03:57:12;18.55;;;9.98;;
48911;SDS011;34722;52.108;5.044;2023-07-20T03:59:44;16.38;;;9.60;;
48911;SDS011;34722;52.108;5.044;2023-07-20T04:02:11;16.38;;;9.70;;
48911;SDS011;34722;52.108;5.044;2023-07-20T04:04:37;16.33;;;10.75;;
48911;SDS011;34722;52.108;5.044;2023-07-20T04:07:06;13.88;;;9.77;;
48911;SDS011;34722;52.108;5.044;2023-07-20T04:09:36;16.73;;;10.60;;
48911;SDS011;34722;52.108;5.044;2023-07-20T04:12:07;18.10;;;9.63;;
48911;SDS011;34722;52.108;5.044;2023-07-20T04:14:37;15.82;;;9.07;;
48911;SDS011;34722;52.108;5.044;2023-07-20T04:17:03;16.02;;;9.65;;
48911;SDS011;34722;52.108;5.044;2023-07-20T04:19:30;18.30;;;10.38;;
48911;SDS011;34722;52.108;5.044;2023-07-20T04:21:58;17.90;;;9.65;;
48911;SDS011;34722;52.108;5.044;2023-07-20T04:24:24;15.80;;;10.40;;
48911;SDS011;34722;52.108;5.044;2023-07-20T04:26:51;15.82;;;10.13;;
48911;SDS011;34722;52.108;5.044;2023-07-20T04:29:39;17.20;;;10.50;;
48911;SDS011;34722;52.108;5.044;2023-07-20T04:32:09;13.90;;;9.77;;
48911;SDS011;34722;52.108;5.044;2023-07-20T04:34:36;16.27;;;10.43;;
48911;SDS011;34722;52.108;5.044;2023-07-20T04:37:04;16.35;;;10.50;;
48911;SDS011;34722;52.108;5.044;2023-07-20T04:39:32;16.35;;;9.45;;
48911;SDS011;34722;52.108;5.044;2023-07-20T04:41:59;13.93;;;9.20;;
48911;SDS011;34722;52.108;5.044;2023-07-20T04:44:25;12.05;;;9.98;;
48911;SDS011;34722;52.108;5.044;2023-07-20T04:46:54;13.65;;;8.95;;
48911;SDS011;34722;52.108;5.044;2023-07-20T04:49:21;16.15;;;9.63;;
48911;SDS011;34722;52.108;5.044;2023-07-20T04:51:48;11.30;;;8.55;;
48911;SDS011;34722;52.108;5.044;2023-07-20T04:54:15;10.35;;;8.07;;
48911;SDS011;34722;52.108;5.044;2023-07-20T04:56:42;11.85;;;7.95;;
48911;SDS011;34722;52.108;5.044;2023-07-20T04:59:09;9.85;;;7.35;;
48911;SDS011;34722;52.108;5.044;2023-07-20T05:01:35;9.98;;;7.53;;
48911;SDS011;34722;52.108;5.044;2023-07-20T05:04:01;9.38;;;7.18;;
48911;SDS011;34722;52.108;5.044;2023-07-20T05:06:28;9.63;;;6.18;;
48911;SDS011;34722;52.108;5.044;2023-07-20T05:09:04;7.97;;;6.32;;
48911;SDS011;34722;52.108;5.044;2023-07-20T05:17:31;9.30;;;6.35;;
48911;SDS011;34722;52.108;5.044;2023-07-20T05:20:04;9.65;;;6.18;;
48911;SDS011;34722;52.108;5.044;2023-07-20T05:22:35;7.47;;;5.65;;
48911;SDS011;34722;52.108;5.044;2023-07-20T05:25:08;6.55;;;5.03;;
48911;SDS011;34722;52.108;5.044;2023-07-20T05:27:36;5.88;;;5.05;;
48911;SDS011;34722;52.108;5.044;2023-07-20T05:30:12;7.75;;;5.80;;
48911;SDS011;34722;52.108;5.044;2023-07-20T05:42:49;3.80;;;2.72;;
48911;SDS011;34722;52.108;5.044;2023-07-20T05:56:20;2.03;;;1.75;;
48911;SDS011;34722;52.108;5.044;2023-07-20T11:03:39;1.17;;;1.00;;
48911;SDS011;34722;52.108;5.044;2023-07-20T11:06:29;1.92;;;1.27;;
48911;SDS011;34722;52.108;5.044;2023-07-20T11:09:33;1.42;;;1.15;;
48911;SDS011;34722;52.108;5.044;2023-07-20T11:12:11;2.40;;;1.20;;
48911;SDS011;34722;52.108;5.044;2023-07-20T11:14:41;1.67;;;1.58;;
48911;SDS011;34722;52.108;5.044;2023-07-20T11:17:17;2.60;;;1.40;;
48911;SDS011;34722;52.108;5.044;2023-07-20T11:20:00;1.83;;;1.20;;
48911;SDS011;34722;52.108;5.044;2023-07-20T11:22:28;2.05;;;1.20;;
48911;SDS011;34722;52.108;5.044;2023-07-20T11:27:55;2.35;;;1.35;;
48911;SDS011;34722;52.108;5.044;2023-07-20T11:30:24;2.45;;;1.10;;
48911;SDS011;34722;52.108;5.044;2023-07-20T11:36:06;3.53;;;1.30;;
48911;SDS011;34722;52.108;5.044;2023-07-20T11:38:45;1.38;;;1.27;;
48911;SDS011;34722;52.108;5.044;2023-07-20T11:41:27;1.85;;;1.33;;
48911;SDS011;34722;52.108;5.044;2023-07-20T11:43:53;1.35;;;1.10;;
48911;SDS011;34722;52.108;5.044;2023-07-20T11:46:48;1.07;;;1.07;;
48911;SDS011;34722;52.108;5.044;2023-07-20T12:05:22;1.40;;;1.27;;
48911;SDS011;34722;52.108;5.044;2023-07-20T12:08:01;2.88;;;1.13;;
48911;SDS011;34722;52.108;5.044;2023-07-20T12:10:31;1.40;;;1.27;;
48911;SDS011;34722;52.108;5.044;2023-07-20T12:13:10;2.15;;;1.50;;
48911;SDS011;34722;52.108;5.044;2023-07-20T12:15:37;1.13;;;1.02;;
48911;SDS011;34722;52.108;5.044;2023-07-20T12:18:03;2.97;;;1.60;;
48911;SDS011;34722;52.108;5.044;2023-07-20T12:20:31;4.00;;;1.77;;
48911;SDS011;34722;52.108;5.044;2023-07-20T12:23:00;1.73;;;1.15;;
48911;SDS011;34722;52.108;5.044;2023-07-20T12:32:13;3.05;;;1.55;;
48911;SDS011;34722;52.108;5.044;2023-07-20T12:39:50;2.75;;;1.83;;
48911;SDS011;34722;52.108;5.044;2023-07-20T12:42:27;4.20;;;1.80;;
48911;SDS011;34722;52.108;5.044;2023-07-20T12:45:02;2.38;;;1.40;;
48911;SDS011;34722;52.108;5.044;2023-07-20T12:47:38;1.65;;;1.55;;
48911;SDS011;34722;52.108;5.044;2023-07-20T12:50:15;1.75;;;1.65;;
48911;SDS011;34722;52.108;5.044;2023-07-20T12:52:48;2.53;;;1.52;;
48911;SDS011;34722;52.108;5.044;2023-07-20T12:55:14;3.53;;;1.63;;
48911;SDS011;34722;52.108;5.044;2023-07-20T12:57:51;1.67;;;1.10;;
48911;SDS011;34722;52.108;5.044;2023-07-20T13:00:18;1.70;;;1.60;;
48911;SDS011;34722;52.108;5.044;2023-07-20T13:02:51;1.67;;;1.48;;
48911;SDS011;34722;52.108;5.044;2023-07-20T13:08:21;2.00;;;1.73;;
48911;SDS011;34722;52.108;5.044;2023-07-20T13:10:50;1.63;;;1.52;;
48911;SDS011;34722;52.108;5.044;2023-07-20T13:13:27;1.30;;;1.30;;
48911;SDS011;34722;52.108;5.044;2023-07-20T13:16:17;1.73;;;1.63;;
48911;SDS011;34722;52.108;5.044;2023-07-20T13:18:50;2.10;;;1.10;;
48911;SDS011;34722;52.108;5.044;2023-07-20T13:21:19;1.27;;;1.08;;
48911;SDS011;34722;52.108;5.044;2023-07-20T13:23:56;0.90;;;0.90;;
48911;SDS011;34722;52.108;5.044;2023-07-20T13:26:23;1.77;;;1.10;;
48911;SDS011;34722;52.108;5.044;2023-07-20T13:28:52;1.10;;;1.00;;
48911;SDS011;34722;52.108;5.044;2023-07-20T13:31:36;1.27;;;1.05;;
48911;SDS011;34722;52.108;5.044;2023-07-20T13:34:07;1.13;;;0.93;;
48911;SDS011;34722;52.108;5.044;2023-07-20T13:36:43;2.45;;;1.23;;
48911;SDS011;34722;52.108;5.044;2023-07-20T13:39:39;1.25;;;1.25;;
48911;SDS011;34722;52.108;5.044;2023-07-20T13:42:07;2.13;;;1.15;;
48911;SDS011;34722;52.108;5.044;2023-07-20T13:44:37;1.30;;;1.20;;
48911;SDS011;34722;52.108;5.044;2023-07-20T13:47:06;1.20;;;1.10;;
48911;SDS011;34722;52.108;5.044;2023-07-20T13:49:39;1.27;;;1.20;;
48911;SDS011;34722;52.108;5.044;2023-07-20T13:52:06;1.25;;;1.13;;
48911;SDS011;34722;52.108;5.044;2023-07-20T13:54:34;1.75;;;1.05;;
48911;SDS011;34722;52.108;5.044;2023-07-20T13:57:04;1.40;;;1.02;;
48911;SDS011;34722;52.108;5.044;2023-07-20T13:59:31;1.98;;;1.15;;
48911;SDS011;34722;52.108;5.044;2023-07-20T14:01:57;3.22;;;2.30;;
48911;SDS011;34722;52.108;5.044;2023-07-20T14:04:24;1.00;;;1.00;;
48911;SDS011;34722;52.108;5.044;2023-07-20T14:06:54;1.27;;;1.17;;
48911;SDS011;34722;52.108;5.044;2023-07-20T14:09:23;1.45;;;1.10;;
48911;SDS011;34722;52.108;5.044;2023-07-20T14:11:52;1.10;;;1.00;;
48911;SDS011;34722;52.108;5.044;2023-07-20T14:14:21;1.23;;;1.10;;
48911;SDS011;34722;52.108;5.044;2023-07-20T14:16:50;1.45;;;1.08;;
48911;SDS011;34722;52.108;5.044;2023-07-20T14:19:18;4.78;;;1.42;;
48911;SDS011;34722;52.108;5.044;2023-07-20T14:21:44;1.23;;;1.00;;
48911;SDS011;34722;52.108;5.044;2023-07-20T14:24:18;1.25;;;1.00;;
48911;SDS011;34722;52.108;5.044;2023-07-20T14:27:07;1.05;;;1.00;;
48911;SDS011;34722;52.108;5.044;2023-07-20T14:30:10;3.00;;;1.10;;
48911;SDS011;34722;52.108;5.044;2023-07-20T14:32:58;1.30;;;1.17;;
48911;SDS011;34722;52.108;5.044;2023-07-20T14:35:27;1.05;;;0.90;;
48911;SDS011;34722;52.108;5.044;2023-07-20T14:38:00;1.40;;;1.15;;
48911;SDS011;34722;52.108;5.044;2023-07-20T14:41:02;1.27;;;1.00;;
48911;SDS011;34722;52.108;5.044;2023-07-20T14:43:33;1.05;;;1.00;;
48911;SDS011;34722;52.108;5.044;2023-07-20T14:46:05;0.93;;;0.93;;
48911;SDS011;34722;52.108;5.044;2023-07-20T14:48:56;1.42;;;1.33;;
48911;SDS011;34722;52.108;5.044;2023-07-20T14:52:11;1.00;;;1.00;;
48911;SDS011;34722;52.108;5.044;2023-07-20T15:10:09;1.13;;;0.90;;
48911;SDS011;34722;52.108;5.044;2023-07-20T15:12:52;0.70;;;0.70;;
48911;SDS011;34722;52.108;5.044;2023-07-20T15:15:20;1.20;;;1.10;;
48911;SDS011;34722;52.108;5.044;2023-07-20T15:17:48;3.40;;;1.10;;
48911;SDS011;34722;52.108;5.044;2023-07-20T15:20:15;2.10;;;0.80;;
48911;SDS011;34722;52.108;5.044;2023-07-20T15:22:44;3.42;;;0.95;;
48911;SDS011;34722;52.108;5.044;2023-07-20T15:25:19;1.13;;;0.80;;
48911;SDS011;34722;52.108;5.044;2023-07-20T15:27:45;3.35;;;0.98;;
48911;SDS011;34722;52.108;5.044;2023-07-20T15:30:14;0.70;;;0.70;;
48911;SDS011;34722;52.108;5.044;2023-07-20T15:32:42;1.48;;;0.90;;
48911;SDS011;34722;52.108;5.044;2023-07-20T15:35:09;1.05;;;0.90;;
48911;SDS011;34722;52.108;5.044;2023-07-20T15:37:37;2.28;;;1.17;;
48911;SDS011;34722;52.108;5.044;2023-07-20T15:40:04;1.52;;;1.13;;
48911;SDS011;34722;52.108;5.044;2023-07-20T15:42:32;1.52;;;0.80;;
48911;SDS011;34722;52.108;5.044;2023-07-20T15:45:12;1.20;;;1.08;;
48911;SDS011;34722;52.108;5.044;2023-07-20T15:47:39;2.58;;;0.98;;
48911;SDS011;34722;52.108;5.044;2023-07-20T15:50:05;0.93;;;0.77;;
48911;SDS011;34722;52.108;5.044;2023-07-20T15:52:33;1.38;;;0.98;;
48911;SDS011;34722;52.108;5.044;2023-07-20T15:58:17;2.28;;;0.90;;
48911;SDS011;34722;52.108;5.044;2023-07-20T16:01:02;1.83;;;1.10;;
48911;SDS011;34722;52.108;5.044;2023-07-20T16:03:35;1.63;;;0.70;;
48911;SDS011;34722;52.108;5.044;2023-07-20T16:06:08;0.80;;;0.80;;
48911;SDS011;34722;52.108;5.044;2023-07-20T16:08:40;1.02;;;0.93;;
48911;SDS011;34722;52.108;5.044;2023-07-20T16:11:15;1.25;;;1.15;;
48911;SDS011;34722;52.108;5.044;2023-07-20T16:13:49;1.10;;;1.00;;
48911;SDS011;34722;52.108;5.044;2023-07-20T16:16:17;0.90;;;0.90;;
48911;SDS011;34722;52.108;5.044;2023-07-20T16:18:47;1.00;;;0.90;;
48911;SDS011;34722;52.108;5.044;2023-07-20T16:23:50;1.58;;;0.68;;
48911;SDS011;34722;52.108;5.044;2023-07-20T16:26:17;2.88;;;1.33;;
48911;SDS011;34722;52.108;5.044;2023-07-20T16:31:42;0.80;;;0.80;;
48911;SDS011;34722;52.108;5.044;2023-07-20T16:37:39;2.47;;;1.17;;
48911;SDS011;34722;52.108;5.044;2023-07-20T16:40:58;1.52;;;0.60;;
48911;SDS011;34722;52.108;5.044;2023-07-20T16:43:35;2.05;;;0.90;;
48911;SDS011;34722;52.108;5.044;2023-07-20T16:56:47;2.22;;;0.90;;
48911;SDS011;34722;52.108;5.044;2023-07-20T16:59:15;2.05;;;1.02;;
48911;SDS011;34722;52.108;5.044;2023-07-20T17:01:43;1.50;;;0.80;;
48911;SDS011;34722;52.108;5.044;2023-07-20T17:04:23;0.80;;;0.80;;
48911;SDS011;34722;52.108;5.044;2023-07-20T17:06:54;1.00;;;0.90;;
48911;SDS011;34722;52.108;5.044;2023-07-20T17:09:29;2.50;;;0.82;;
48911;SDS011;34722;52.108;5.044;2023-07-20T17:11:57;2.40;;;0.80;;
48911;SDS011;34722;52.108;5.044;2023-07-20T17:14:23;1.55;;;1.20;;
48911;SDS011;34722;52.108;5.044;2023-07-20T17:16:53;1.05;;;0.75;;
48911;SDS011;34722;52.108;5.044;2023-07-20T17:19:22;1.02;;;1.02;;
48911;SDS011;34722;52.108;5.044;2023-07-20T17:21:48;3.35;;;1.17;;
48911;SDS011;34722;52.108;5.044;2023-07-20T17:24:27;2.22;;;1.08;;
48911;SDS011;34722;52.108;5.044;2023-07-20T17:26:53;1.42;;;1.00;;
48911;SDS011;34722;52.108;5.044;2023-07-20T17:29:21;2.33;;;0.93;;
48911;SDS011;34722;52.108;5.044;2023-07-20T17:31:50;2.17;;;1.50;;
48911;SDS011;34722;52.108;5.044;2023-07-20T17:34:17;1.10;;;1.00;;
48911;SDS011;34722;52.108;5.044;2023-07-20T17:44:22;1.45;;;1.10;;
48911;SDS011;34722;52.108;5.044;2023-07-20T18:18:17;1.15;;;1.02;;
48911;SDS011;34722;52.108;5.044;2023-07-20T18:20:46;0.90;;;0.90;;
48911;SDS011;34722;52.108;5.044;2023-07-20T18:29:43;0.80;;;0.80;;
48911;SDS011;34722;52.108;5.044;2023-07-20T18:32:20;0.80;;;0.73;;
48911;SDS011;34722;52.108;5.044;2023-07-20T18:34:47;0.90;;;0.90;;
48911;SDS011;34722;52.108;5.044;2023-07-20T18:39:44;4.07;;;1.25;;
48911;SDS011;34722;52.108;5.044;2023-07-20T18:42:36;0.80;;;0.80;;
48911;SDS011;34722;52.108;5.044;2023-07-20T18:45:09;2.25;;;1.40;;
48911;SDS011;34722;52.108;5.044;2023-07-20T18:47:39;2.20;;;1.40;;
48911;SDS011;34722;52.108;5.044;2023-07-20T18:50:15;1.67;;;1.58;;
48911;SDS011;34722;52.108;5.044;2023-07-20T18:52:43;1.85;;;1.70;;
48911;SDS011;34722;52.108;5.044;2023-07-20T18:55:13;2.63;;;2.22;;
48911;SDS011;34722;52.108;5.044;2023-07-20T18:57:39;2.08;;;1.30;;
48911;SDS011;34722;52.108;5.044;2023-07-20T19:00:23;2.83;;;1.80;;
48911;SDS011;34722;52.108;5.044;2023-07-20T19:05:33;3.85;;;1.67;;
48911;SDS011;34722;52.108;5.044;2023-07-20T19:08:31;2.35;;;1.70;;
48911;SDS011;34722;52.108;5.044;2023-07-20T19:11:06;3.17;;;1.70;;
48911;SDS011;34722;52.108;5.044;2023-07-20T19:13:36;2.10;;;1.80;;
48911;SDS011;34722;52.108;5.044;2023-07-20T19:16:10;5.15;;;1.85;;
48911;SDS011;34722;52.108;5.044;2023-07-20T19:18:36;3.17;;;1.73;;
48911;SDS011;34722;52.108;5.044;2023-07-20T19:21:06;2.00;;;1.80;;
48911;SDS011;34722;52.108;5.044;2023-07-20T19:23:33;2.95;;;1.73;;
48911;SDS011;34722;52.108;5.044;2023-07-20T19:26:11;5.32;;;1.65;;
48911;SDS011;34722;52.108;5.044;2023-07-20T19:28:50;2.75;;;2.55;;
48911;SDS011;34722;52.108;5.044;2023-07-20T19:31:22;3.70;;;2.13;;
48911;SDS011;34722;52.108;5.044;2023-07-20T19:33:48;2.45;;;1.77;;
48911;SDS011;34722;52.108;5.044;2023-07-20T19:36:17;2.72;;;2.13;;
48911;SDS011;34722;52.108;5.044;2023-07-20T19:38:54;3.50;;;1.88;;
48911;SDS011;34722;52.108;5.044;2023-07-20T19:41:21;4.45;;;1.80;;
48911;SDS011;34722;52.108;5.044;2023-07-20T19:43:53;4.90;;;1.92;;
48911;SDS011;34722;52.108;5.044;2023-07-20T19:46:37;5.07;;;1.80;;
48911;SDS011;34722;52.108;5.044;2023-07-20T19:50:04;2.40;;;2.20;;
48911;SDS011;34722;52.108;5.044;2023-07-20T19:52:36;2.05;;;1.48;;
48911;SDS011;34722;52.108;5.044;2023-07-20T19:55:05;1.65;;;1.55;;
48911;SDS011;34722;52.108;5.044;2023-07-20T19:57:35;3.00;;;1.80;;
48911;SDS011;34722;52.108;5.044;2023-07-20T20:00:10;2.53;;;2.20;;
48911;SDS011;34722;52.108;5.044;2023-07-20T20:02:38;2.30;;;1.63;;
48911;SDS011;34722;52.108;5.044;2023-07-20T20:05:06;5.13;;;1.83;;
48911;SDS011;34722;52.108;5.044;2023-07-20T20:07:40;3.13;;;2.03;;
48911;SDS011;34722;52.108;5.044;2023-07-20T20:10:07;4.53;;;2.47;;
48911;SDS011;34722;52.108;5.044;2023-07-20T20:12:37;3.45;;;2.47;;
48911;SDS011;34722;52.108;5.044;2023-07-20T20:15:16;4.13;;;3.20;;
48911;SDS011;34722;52.108;5.044;2023-07-20T20:17:43;3.17;;;2.65;;
48911;SDS011;34722;52.108;5.044;2023-07-20T20:20:10;3.50;;;2.45;;
48911;SDS011;34722;52.108;5.044;2023-07-20T20:25:22;3.33;;;2.58;;
48911;SDS011;34722;52.108;5.044;2023-07-20T20:27:50;4.40;;;2.53;;
48911;SDS011;34722;52.108;5.044;2023-07-20T20:30:19;3.47;;;2.45;;
48911;SDS011;34722;52.108;5.044;2023-07-20T20:32:52;2.30;;;2.10;;
48911;SDS011;34722;52.108;5.044;2023-07-20T20:35:23;6.45;;;2.08;;
48911;SDS011;34722;52.108;5.044;2023-07-20T20:40:37;2.40;;;1.80;;
48911;SDS011;34722;52.108;5.044;2023-07-20T20:43:13;2.50;;;1.98;;
48911;SDS011;34722;52.108;5.044;2023-07-20T20:45:43;2.90;;;2.25;;
48911;SDS011;34722;52.108;5.044;2023-07-20T20:48:14;3.25;;;2.10;;
48911;SDS011;34722;52.108;5.044;2023-07-20T20:50:44;1.80;;;1.70;;
48911;SDS011;34722;52.108;5.044;2023-07-20T20:53:12;2.80;;;2.60;;
48911;SDS011;34722;52.108;5.044;2023-07-20T20:55:41;5.15;;;1.90;;
48911;SDS011;34722;52.108;5.044;2023-07-20T20:58:08;2.65;;;1.80;;
48911;SDS011;34722;52.108;5.044;2023-07-20T21:00:43;4.05;;;2.00;;
48911;SDS011;34722;52.108;5.044;2023-07-20T21:03:12;4.03;;;2.05;;
48911;SDS011;34722;52.108;5.044;2023-07-20T21:05:42;1.70;;;1.60;;
48911;SDS011;34722;52.108;5.044;2023-07-20T21:08:09;2.50;;;1.88;;
48911;SDS011;34722;52.108;5.044;2023-07-20T21:10:45;3.63;;;2.20;;
48911;SDS011;34722;52.108;5.044;2023-07-20T21:13:56;1.88;;;1.77;;
48911;SDS011;34722;52.108;5.044;2023-07-20T21:16:37;3.53;;;1.73;;
48911;SDS011;34722;52.108;5.044;2023-07-20T21:19:28;2.92;;;1.63;;
48911;SDS011;34722;52.108;5.044;2023-07-20T21:22:24;1.70;;;1.60;;
48911;SDS011;34722;52.108;5.044;2023-07-20T21:25:05;1.70;;;1.60;;
48911;SDS011;34722;52.108;5.044;2023-07-20T21:27:33;3.22;;;1.70;;
48911;SDS011;34722;52.108;5.044;2023-07-20T21:30:06;1.90;;;1.80;;
48911;SDS011;34722;52.108;5.044;2023-07-20T21:32:34;1.63;;;1.50;;
48911;SDS011;34722;52.108;5.044;2023-07-20T21:35:05;1.23;;;1.13;;
48911;SDS011;34722;52.108;5.044;2023-07-20T21:37:41;1.60;;;1.50;;
48911;SDS011;34722;52.108;5.044;2023-07-20T21:40:11;1.60;;;1.50;;
48911;SDS011;34722;52.108;5.044;2023-07-20T21:42:49;1.58;;;1.48;;
48911;SDS011;34722;52.108;5.044;2023-07-20T21:45:18;7.00;;;1.60;;
48911;SDS011;34722;52.108;5.044;2023-07-20T21:47:48;1.80;;;1.70;;
48911;SDS011;34722;52.108;5.044;2023-07-20T21:50:25;2.17;;;1.60;;
48911;SDS011;34722;52.108;5.044;2023-07-20T21:53:02;2.22;;;1.45;;
48911;SDS011;34722;52.108;5.044;2023-07-20T21:55:31;2.15;;;1.92;;
48911;SDS011;34722;52.108;5.044;2023-07-20T21:58:10;3.42;;;1.90;;
48911;SDS011;34722;52.108;5.044;2023-07-20T22:00:47;2.90;;;1.80;;
48911;SDS011;34722;52.108;5.044;2023-07-20T22:03:32;6.60;;;1.83;;
48911;SDS011;34722;52.108;5.044;2023-07-20T22:06:04;2.45;;;1.88;;
48911;SDS011;34722;52.108;5.044;2023-07-20T22:32:40;1.90;;;1.73;;
48911;SDS011;34722;52.108;5.044;2023-07-20T22:35:09;2.65;;;2.30;;
48911;SDS011;34722;52.108;5.044;2023-07-20T22:37:39;2.00;;;1.83;;
48911;SDS011;34722;52.108;5.044;2023-07-20T22:40:09;1.90;;;1.80;;
48911;SDS011;34722;52.108;5.044;2023-07-20T22:42:49;1.90;;;1.80;;
48911;SDS011;34722;52.108;5.044;2023-07-20T22:45:17;2.40;;;2.20;;
48911;SDS011;34722;52.108;5.044;2023-07-20T22:47:45;3.90;;;2.20;;
48911;SDS011;34722;52.108;5.044;2023-07-20T22:50:18;2.35;;;2.15;;
48911;SDS011;34722;52.108;5.044;2023-07-20T22:52:57;2.95;;;2.00;;
48911;SDS011;34722;52.108;5.044;2023-07-20T22:55:28;2.30;;;2.10;;
48911;SDS011;34722;52.108;5.044;2023-07-20T22:57:58;2.70;;;2.17;;
48911;SDS011;34722;52.108;5.044;2023-07-20T23:00:28;4.85;;;2.10;;
48911;SDS011;34722;52.108;5.044;2023-07-20T23:02:56;3.08;;;1.90;;
48911;SDS011;34722;52.108;5.044;2023-07-20T23:05:28;2.38;;;2.17;;
48911;SDS011;34722;52.108;5.044;2023-07-20T23:07:57;2.83;;;2.33;;
48911;SDS011;34722;52.108;5.044;2023-07-20T23:10:25;5.57;;;2.17;;
48911;SDS011;34722;52.108;5.044;2023-07-20T23:12:53;2.47;;;2.20;;
48911;SDS011;34722;52.108;5.044;2023-07-20T23:15:22;2.03;;;1.92;;
48911;SDS011;34722;52.108;5.044;2023-07-20T23:17:52;2.30;;;2.10;;
48911;SDS011;34722;52.108;5.044;2023-07-20T23:20:19;2.65;;;2.45;;
48911;SDS011;34722;52.108;5.044;2023-07-20T23:22:48;2.50;;;2.30;;
48911;SDS011;34722;52.108;5.044;2023-07-20T23:29:12;3.35;;;2.00;;
48911;SDS011;34722;52.108;5.044;2023-07-20T23:31:38;3.53;;;2.60;;
48911;SDS011;34722;52.108;5.044;2023-07-20T23:34:07;3.63;;;2.53;;